createdAt,value
2022-10-23T00:04:15.407Z,53.89
2022-10-23T00:09:16.398Z,53.85
2022-10-23T00:14:13.894Z,53.80
2022-10-23T00:19:10.996Z,53.78
2022-10-23T00:29:08.051Z,53.76
2022-10-23T00:34:07.597Z,53.36
2022-10-23T00:39:05.499Z,53.55
2022-10-23T00:44:08.083Z,53.26
2022-10-23T00:49:06.063Z,53.30
2022-10-23T00:54:23.972Z,53.12
2022-10-23T00:59:23.145Z,53.09
2022-10-23T01:04:22.011Z,53.09
2022-10-23T01:09:26.201Z,52.94
2022-10-23T01:14:32.057Z,52.86
2022-10-23T01:19:43.111Z,52.53
2022-10-23T01:24:51.160Z,52.51
2022-10-23T01:29:59.218Z,52.42
2022-10-23T01:35:07.774Z,52.20
2022-10-23T01:40:11.605Z,51.76
2022-10-23T01:45:13.729Z,51.79
2022-10-23T01:50:15.536Z,51.46
2022-10-23T01:55:16.513Z,51.67
2022-10-23T02:00:17.749Z,51.45
2022-10-23T02:05:26.593Z,51.46
2022-10-23T02:10:32.454Z,51.05
2022-10-23T02:15:36.036Z,50.90
2022-10-23T02:20:38.387Z,50.86
2022-10-23T02:25:41.336Z,50.43
2022-10-23T02:30:44.220Z,50.11
2022-10-23T02:35:43.337Z,50.09
2022-10-23T02:40:57.319Z,49.57
2022-10-23T02:46:08.543Z,49.91
2022-10-23T02:51:12.345Z,49.57
2022-10-23T02:56:18.451Z,49.36
2022-10-23T03:01:20.163Z,49.08
2022-10-23T03:06:18.923Z,49.12
2022-10-23T03:11:16.106Z,49.19
2022-10-23T03:16:13.187Z,49.10
2022-10-23T03:21:10.986Z,48.96
2022-10-23T03:26:08.628Z,48.82
2022-10-23T03:31:10.918Z,48.54
2022-10-23T03:36:10.510Z,48.51
2022-10-23T03:41:07.602Z,48.34
2022-10-23T03:46:08.643Z,48.25
2022-10-23T03:51:06.715Z,47.89
2022-10-23T03:56:05.211Z,47.77
2022-10-23T04:01:03.681Z,47.87
2022-10-23T04:06:00.758Z,47.93
2022-10-23T04:11:00.026Z,47.92
2022-10-23T04:16:05.833Z,48.30
2022-10-23T04:21:03.685Z,48.25
2022-10-23T04:26:00.837Z,48.23
2022-10-23T04:30:57.899Z,48.68
2022-10-23T04:35:58.593Z,49.08
2022-10-23T04:40:55.747Z,49.26
2022-10-23T04:45:53.672Z,49.47
2022-10-23T04:50:59.767Z,49.73
2022-10-23T04:56:17.898Z,49.95
2022-10-23T05:01:28.619Z,50.23
2022-10-23T05:06:27.289Z,50.41
2022-10-23T05:11:56.002Z,50.89
2022-10-23T05:16:59.455Z,50.98
2022-10-23T05:21:57.914Z,51.23
2022-10-23T05:27:06.613Z,51.63
2022-10-23T05:32:12.533Z,51.89
2022-10-23T05:37:15.814Z,52.19
2022-10-23T05:42:16.169Z,52.93
2022-10-23T05:47:16.626Z,53.02
2022-10-23T05:52:48.496Z,53.08
2022-10-23T05:58:43.210Z,53.15
2022-10-23T06:03:58.881Z,53.56
2022-10-23T06:09:18.461Z,53.97
2022-10-23T06:14:20.344Z,54.00
2022-10-23T06:19:18.843Z,54.24
2022-10-23T06:24:38.929Z,54.61
2022-10-23T06:29:41.584Z,54.51
2022-10-23T06:34:49.907Z,54.66
2022-10-23T06:39:47.575Z,54.89
2022-10-23T06:44:47.823Z,54.60
2022-10-23T06:49:53.524Z,54.69
2022-10-23T06:55:04.272Z,54.82
2022-10-23T07:00:06.574Z,55.00
2022-10-23T07:05:32.231Z,55.27
2022-10-23T07:11:16.596Z,55.26
2022-10-23T07:16:29.376Z,55.30
2022-10-23T07:21:27.025Z,55.56
2022-10-23T07:26:29.945Z,55.32
2022-10-23T07:31:30.384Z,55.38
2022-10-23T07:36:45.586Z,55.47
2022-10-23T07:41:43.081Z,55.34
2022-10-23T07:46:41.220Z,55.06
2022-10-23T07:52:13.003Z,54.55
2022-10-23T07:57:28.769Z,54.20
2022-10-23T08:02:38.136Z,53.56
2022-10-23T08:07:48.330Z,53.30
2022-10-23T08:12:47.130Z,52.93
2022-10-23T08:17:48.503Z,52.47
2022-10-23T08:22:57.848Z,52.36
2022-10-23T08:28:05.536Z,51.68
2022-10-23T08:33:14.688Z,51.78
2022-10-23T08:38:23.428Z,51.00
2022-10-23T08:43:46.530Z,50.54
2022-10-23T08:49:34.300Z,50.03
2022-10-23T08:54:43.428Z,49.41
2022-10-23T08:59:46.131Z,49.08
2022-10-23T09:04:47.403Z,48.14
2022-10-23T09:15:40.041Z,47.35
2022-10-23T09:20:40.433Z,46.46
2022-10-23T09:25:50.441Z,46.60
2022-10-23T09:31:07.901Z,46.58
2022-10-23T09:36:22.967Z,45.55
2022-10-23T09:41:27.443Z,45.16
2022-10-23T09:46:24.454Z,45.29
2022-10-23T09:51:22.529Z,45.03
2022-10-23T10:01:53.350Z,44.56
2022-10-23T10:07:20.057Z,44.17
2022-10-23T10:12:45.592Z,42.96
2022-10-23T10:17:57.168Z,40.42
2022-10-23T10:23:01.219Z,39.18
2022-10-23T10:28:15.908Z,36.69
2022-10-23T10:33:16.751Z,37.76
2022-10-23T10:38:38.981Z,36.31
2022-10-23T10:43:43.928Z,36.03
2022-10-23T10:48:49.640Z,35.38
2022-10-23T10:54:18.172Z,35.13
2022-10-23T10:59:31.494Z,34.88
2022-10-23T11:04:39.044Z,34.78
2022-10-23T11:09:39.182Z,34.06
2022-10-23T11:14:36.155Z,33.92
2022-10-23T11:19:42.215Z,33.31
2022-10-23T11:25:07.476Z,33.71
2022-10-23T11:30:18.694Z,32.76
2022-10-23T11:35:30.148Z,33.17
2022-10-23T11:40:29.020Z,33.55
2022-10-23T11:45:42.102Z,32.53
2022-10-23T11:50:51.226Z,32.96
2022-10-23T11:56:30.658Z,32.63
2022-10-23T12:01:36.961Z,33.63
2022-10-23T12:06:40.474Z,33.21
2022-10-23T12:11:52.345Z,33.20
2022-10-23T12:16:49.269Z,32.35
2022-10-23T12:22:15.386Z,32.92
2022-10-23T12:27:35.650Z,32.61
2022-10-23T12:33:06.566Z,33.25
2022-10-23T12:38:13.838Z,32.45
2022-10-23T12:43:26.018Z,32.82
2022-10-23T12:48:24.561Z,32.90
2022-10-23T12:53:24.063Z,32.10
2022-10-23T12:58:24.814Z,32.63
2022-10-23T13:03:36.845Z,33.05
2022-10-23T13:08:42.053Z,33.40
2022-10-23T13:13:59.221Z,33.84
2022-10-23T13:19:21.757Z,33.67
2022-10-23T13:24:23.060Z,34.04
2022-10-23T13:29:23.174Z,33.82
2022-10-23T13:34:27.615Z,33.77
2022-10-23T13:39:30.834Z,34.21
2022-10-23T13:44:28.603Z,34.77
2022-10-23T13:49:30.102Z,34.92
2022-10-23T13:54:38.262Z,34.98
2022-10-23T13:59:37.547Z,34.65
2022-10-23T14:04:46.907Z,35.10
2022-10-23T14:09:45.318Z,35.21
2022-10-23T14:14:45.567Z,35.70
2022-10-23T14:19:42.665Z,35.69
2022-10-23T14:24:39.754Z,35.82
2022-10-23T14:29:36.719Z,36.28
2022-10-23T14:34:35.981Z,36.05
2022-10-23T14:39:33.067Z,36.40
2022-10-23T14:44:30.069Z,36.63
2022-10-23T14:49:35.132Z,37.18
2022-10-23T14:54:38.104Z,37.24
2022-10-23T14:59:35.602Z,37.50
2022-10-23T15:04:47.466Z,37.92
2022-10-23T15:10:12.164Z,38.32
2022-10-23T15:15:12.642Z,38.81
2022-10-23T15:20:22.165Z,39.08
2022-10-23T15:25:19.831Z,39.59
2022-10-23T15:30:20.166Z,39.97
2022-10-23T15:35:44.179Z,40.92
2022-10-23T15:40:54.183Z,41.47
2022-10-23T15:45:51.489Z,41.42
2022-10-23T15:50:48.679Z,41.67
2022-10-23T15:55:51.880Z,42.46
2022-10-23T16:00:51.602Z,42.83
2022-10-23T16:05:51.582Z,43.24
2022-10-23T16:10:49.526Z,43.75
2022-10-23T16:16:07.246Z,44.34
2022-10-23T16:21:38.844Z,44.61
2022-10-23T16:26:38.517Z,44.78
2022-10-23T16:31:38.621Z,45.36
2022-10-23T16:42:47.467Z,45.86
2022-10-23T16:48:02.474Z,45.78
2022-10-23T16:59:19.116Z,45.85
2022-10-23T17:04:21.718Z,45.84
2022-10-23T17:09:24.048Z,46.20
2022-10-23T17:14:28.593Z,46.43
2022-10-23T17:19:47.073Z,46.86
2022-10-23T17:24:47.416Z,46.95
2022-10-23T17:29:54.805Z,47.03
2022-10-23T17:35:09.228Z,46.92
2022-10-23T17:40:07.923Z,46.86
2022-10-23T17:45:09.548Z,47.24
2022-10-23T17:50:18.693Z,47.31
2022-10-23T17:55:18.486Z,47.31
2022-10-23T18:00:18.295Z,47.66
2022-10-23T18:05:15.564Z,47.97
2022-10-23T18:10:13.102Z,48.15
2022-10-23T18:15:13.297Z,48.04
2022-10-23T18:20:15.204Z,48.64
2022-10-23T18:25:13.774Z,48.88
2022-10-23T18:30:14.594Z,49.08
2022-10-23T18:35:34.294Z,49.05
2022-10-23T18:40:31.767Z,49.41
2022-10-23T18:45:29.027Z,49.33
2022-10-23T18:50:30.286Z,49.34
2022-10-23T19:00:41.482Z,49.42
2022-10-23T19:05:46.163Z,49.87
2022-10-23T19:10:45.143Z,49.70
2022-10-23T19:15:47.434Z,50.10
2022-10-23T19:20:47.974Z,50.46
2022-10-23T19:25:51.018Z,50.82
2022-10-23T19:30:58.474Z,51.12
2022-10-23T19:36:05.381Z,51.12
2022-10-23T19:41:12.063Z,51.38
2022-10-23T19:46:14.476Z,52.06
2022-10-23T19:51:13.194Z,52.27
2022-10-23T19:56:12.506Z,52.53
2022-10-23T20:01:15.763Z,53.01
2022-10-23T20:06:15.168Z,53.36
2022-10-23T20:11:20.449Z,53.37
2022-10-23T20:16:21.437Z,53.63
2022-10-23T20:21:21.102Z,53.90
2022-10-23T20:26:21.415Z,53.85
2022-10-23T20:31:19.896Z,53.84
2022-10-23T20:36:26.652Z,53.69
2022-10-23T20:41:26.479Z,54.02
2022-10-23T20:46:23.773Z,54.05
2022-10-23T20:51:22.896Z,54.02
2022-10-23T20:56:23.405Z,54.15
2022-10-23T21:01:20.391Z,54.25
2022-10-23T21:06:18.509Z,54.41
2022-10-23T21:11:23.847Z,54.21
2022-10-23T21:16:26.103Z,54.44
2022-10-23T21:21:26.561Z,54.58
2022-10-23T21:26:24.601Z,54.90
2022-10-23T21:31:25.375Z,55.07
2022-10-23T21:36:25.592Z,55.27
2022-10-23T21:41:33.405Z,55.39
2022-10-23T21:46:32.530Z,55.51
2022-10-23T21:51:33.417Z,55.84
2022-10-23T21:56:35.350Z,56.01
2022-10-23T22:01:33.445Z,56.07
2022-10-23T22:06:40.668Z,56.26
2022-10-23T22:11:39.137Z,56.46
2022-10-23T22:16:44.460Z,56.55
2022-10-23T22:21:41.885Z,56.89
2022-10-23T22:26:41.131Z,56.92
2022-10-23T22:31:39.458Z,57.07
2022-10-23T22:36:37.150Z,57.01
2022-10-23T22:41:35.038Z,57.18
2022-10-23T22:46:34.850Z,57.20
2022-10-23T22:51:31.754Z,57.16
2022-10-23T22:56:32.402Z,57.39
2022-10-23T23:01:33.822Z,57.78
2022-10-23T23:06:33.140Z,57.93
2022-10-23T23:11:37.100Z,58.22
2022-10-23T23:16:42.766Z,58.45
2022-10-23T23:21:40.506Z,58.63
2022-10-23T23:26:37.309Z,58.56
2022-10-23T23:31:34.223Z,58.73
2022-10-23T23:36:31.950Z,58.79
2022-10-23T23:41:45.101Z,58.87
2022-10-23T23:46:53.619Z,58.85
2022-10-23T23:51:50.745Z,59.27
2022-10-23T23:56:49.837Z,59.65
